createdAt,value
2018-09-21T00:12:00.591Z,68.3
2018-09-21T00:14:58.720Z,68
2018-09-21T00:15:29.378Z,68
2018-09-21T00:16:57.505Z,68.3
2018-09-21T00:17:27.782Z,68.3
2018-09-21T00:30:48.975Z,68.8
2018-09-21T00:32:47.689Z,68.9
2018-09-21T00:34:46.414Z,69.1
2018-09-21T00:37:44.528Z,69.2
2018-09-21T00:39:43.253Z,69
2018-09-21T00:40:42.606Z,69.2
2018-09-21T00:41:42.340Z,69
2018-09-21T00:46:39.338Z,69.5
2018-09-21T00:47:09.485Z,69.5
2018-09-21T00:54:34.443Z,69.9
2018-09-21T00:57:32.153Z,70.1
2018-09-21T00:58:02.683Z,70.1
2018-09-21T01:05:27.534Z,70.5
2018-09-21T01:08:25.534Z,70.4
2018-09-21T01:09:24.862Z,70.3
2018-09-21T01:09:55.490Z,70.3
2018-09-21T01:36:08.131Z,70.3
2018-09-21T01:40:06.028Z,70.2
2018-09-21T01:43:04.139Z,70
2018-09-21T01:49:59.824Z,69.9
2018-09-21T01:54:56.386Z,69.9
2018-09-21T01:57:54.896Z,70.1
2018-09-21T01:58:25.539Z,70.1
2018-09-21T02:01:52.453Z,69.4
2018-09-21T02:13:45.170Z,68.4
2018-09-21T02:16:43.176Z,68.4
2018-09-21T02:21:39.949Z,68.1
2018-09-21T02:24:38.449Z,68.3
2018-09-21T02:26:37.160Z,68.5
2018-09-21T03:03:14.478Z,68.9
2018-09-21T03:05:13.107Z,68.7
2018-09-21T03:09:10.600Z,68.3
2018-09-21T03:13:08.292Z,68.8
2018-09-21T03:17:06.125Z,68.9
2018-09-21T03:21:03.641Z,68.7
2018-09-21T03:21:34.284Z,68.7
2018-09-21T03:25:01.067Z,68.7
2018-09-21T03:26:59.557Z,68.4
2018-09-21T03:29:58.050Z,68.3
2018-09-21T03:32:56.065Z,67.8
2018-09-21T03:35:54.200Z,68.1
2018-09-21T03:38:52.305Z,68.2
2018-09-21T03:45:48.068Z,67.7
2018-09-21T04:09:33.226Z,67.1
2018-09-21T04:25:23.784Z,66.9
2018-09-21T04:32:19.551Z,67.7
2018-09-21T04:33:18.884Z,67.8
2018-09-21T04:35:17.606Z,67.9
2018-09-21T04:36:17.211Z,67.8
2018-09-21T04:37:16.302Z,67.7
2018-09-21T04:38:15.685Z,67.8
2018-09-21T04:38:46.329Z,67.8
2018-09-21T04:39:16.587Z,67.8
2018-09-21T04:39:47.233Z,67.8
2018-09-21T04:40:17.479Z,68.1
2018-09-21T04:40:47.896Z,68.1
2018-09-21T04:41:18.644Z,68.2
2018-09-21T04:41:48.887Z,68.2
2018-09-21T04:43:12.760Z,68.2
2018-09-21T04:44:11.983Z,68.4
2018-09-21T04:45:11.327Z,68.3
2018-09-21T04:46:10.660Z,68.6
2018-09-21T04:49:08.881Z,68.3
2018-09-21T04:50:08.308Z,68.2
2018-09-21T04:51:07.528Z,68.2
2018-09-21T04:52:06.858Z,68.3
2018-09-21T04:52:37.104Z,68.3
2018-09-21T04:53:07.350Z,68
2018-09-21T04:54:05.951Z,68.1
2018-09-21T04:55:05.066Z,68
2018-09-21T04:56:04.497Z,68
2018-09-21T04:57:03.816Z,67.9
2018-09-21T04:59:02.918Z,68.1
2018-09-21T05:01:01.549Z,68.1
2018-09-21T05:02:00.707Z,68
2018-09-21T05:03:00.539Z,67.8
2018-09-21T05:03:59.362Z,68.1
2018-09-21T05:04:59.293Z,68.4
2018-09-21T05:05:58.615Z,68
2018-09-21T05:06:57.828Z,67.5
2018-09-21T05:07:57.149Z,67.7
2018-09-21T05:08:56.473Z,67.5
2018-09-21T05:09:55.794Z,67.3
2018-09-21T05:10:55.623Z,67.3
2018-09-21T05:11:26.262Z,67.3
2018-09-21T05:11:56.690Z,67.7
2018-09-21T05:12:27.314Z,67.7
2018-09-21T05:13:53.867Z,67.2
2018-09-21T05:14:53.193Z,66.9
2018-09-21T05:15:52.299Z,66.8
2018-09-21T05:16:51.523Z,66.6
2018-09-21T05:17:51.354Z,66.4
2018-09-21T05:18:50.579Z,66.4
2018-09-21T05:19:49.932Z,66.8
2018-09-21T05:20:49.398Z,66.9
2018-09-21T05:21:48.740Z,66.9
2018-09-21T05:22:48.105Z,66.6
2018-09-21T05:23:18.522Z,66.6
2018-09-21T05:23:48.668Z,66.6
2018-09-21T05:24:46.590Z,66.5
2018-09-21T05:25:46.312Z,66.6
2018-09-21T05:26:45.525Z,66.7
2018-09-21T05:27:44.738Z,66.5
2018-09-21T05:28:44.566Z,66.4
2018-09-21T05:29:43.789Z,66.6
2018-09-21T05:30:43.005Z,66.8
2018-09-21T05:32:41.830Z,66.8
2018-09-21T05:33:41.162Z,66.7
2018-09-21T05:34:40.883Z,66.8
2018-09-21T05:35:39.929Z,66.2
2018-09-21T05:36:39.259Z,66
2018-09-21T05:37:38.698Z,66
2018-09-21T05:38:38.310Z,65.7
2018-09-21T05:39:09.055Z,65.7
2018-09-21T05:39:39.476Z,65.8
2018-09-21T05:40:37.177Z,66.6
2018-09-21T05:41:36.503Z,65.9
2018-09-21T05:42:35.822Z,65.8
2018-09-21T05:43:34.943Z,65.8
2018-09-21T05:44:34.383Z,65.9
2018-09-21T05:45:34.033Z,65.7
2018-09-21T05:46:33.467Z,65.8
2018-09-21T05:47:32.685Z,65.7
2018-09-21T05:48:32.307Z,66.1
2018-09-21T05:49:02.753Z,66.1
2018-09-21T05:49:33.289Z,65.4
2018-09-21T05:50:03.930Z,65.4
2018-09-21T05:50:34.565Z,65
2018-09-21T05:51:05.092Z,65
2018-09-21T05:51:35.335Z,64.7
2018-09-21T05:52:29.512Z,64.3
2018-09-21T05:53:29.234Z,64
2018-09-21T05:54:28.450Z,63.9
2018-09-21T05:55:27.575Z,63.7
2018-09-21T05:56:26.907Z,63.7
2018-09-21T05:57:26.733Z,63.6
2018-09-21T05:58:26.060Z,63.5
2018-09-21T05:59:25.480Z,63.8
2018-09-21T06:00:24.708Z,64
2018-09-21T06:02:23.922Z,63.4
2018-09-21T06:03:22.926Z,64
2018-09-21T06:05:21.921Z,63.5
2018-09-21T06:06:21.249Z,63.4
2018-09-21T06:07:20.579Z,63.1
2018-09-21T06:08:19.797Z,63.3
2018-09-21T06:08:50.427Z,63.3
2018-09-21T06:10:18.938Z,63
2018-09-21T06:11:18.042Z,62.6
2018-09-21T06:12:17.866Z,62.7
2018-09-21T06:13:17.190Z,62.5
2018-09-21T06:14:16.512Z,62.5
2018-09-21T06:15:15.727Z,62.8
2018-09-21T06:16:15.171Z,62.5
2018-09-21T06:17:14.390Z,62.7
2018-09-21T06:18:14.323Z,62.7
2018-09-21T06:19:13.563Z,62.2
2018-09-21T06:19:44.163Z,62.2
2018-09-21T06:21:12.234Z,62.4
2018-09-21T06:21:42.407Z,62.4
2018-09-21T06:22:13.044Z,61.6
2018-09-21T06:22:45.761Z,61.6
2018-09-21T06:24:10.683Z,61.5
2018-09-21T06:25:09.792Z,61.2
2018-09-21T06:26:09.127Z,61.4
2018-09-21T06:28:08.240Z,61.2
2018-09-21T06:29:07.675Z,60.8
2018-09-21T06:30:07.109Z,60.6
2018-09-21T06:30:37.420Z,60.6
2018-09-21T06:32:06.112Z,60.2
2018-09-21T06:32:36.254Z,60.2
2018-09-21T06:33:06.778Z,60.1
2018-09-21T06:33:37.321Z,60.1
2018-09-21T06:35:03.826Z,60.3
2018-09-21T06:36:03.445Z,60
2018-09-21T06:37:02.773Z,59.7
2018-09-21T06:38:02.259Z,59.3
2018-09-21T06:39:01.864Z,59.2
2018-09-21T06:40:01.365Z,59.5
2018-09-21T06:41:00.438Z,59.5
2018-09-21T06:42:00.054Z,59.3
2018-09-21T06:42:59.384Z,58.5
2018-09-21T06:44:58.205Z,58
2018-09-21T06:45:57.626Z,58.1
2018-09-21T06:46:56.832Z,58.1
2018-09-21T06:47:56.650Z,57.9
2018-09-21T06:48:55.970Z,57.9
2018-09-21T06:49:55.503Z,58.2
2018-09-21T06:50:54.918Z,57.9
2018-09-21T06:51:25.441Z,57.9
2018-09-21T06:51:55.961Z,57.9
2018-09-21T06:52:26.584Z,57.9
2018-09-21T06:52:57.118Z,57.7
2018-09-21T06:53:52.921Z,58.1
2018-09-21T06:54:52.348Z,57.6
2018-09-21T06:55:51.781Z,57.7
2018-09-21T06:56:51.102Z,57.6
2018-09-21T06:57:50.881Z,57.6
2018-09-21T06:58:50.195Z,57.5
2018-09-21T06:59:49.417Z,57.4
2018-09-21T07:00:49.166Z,57.5
2018-09-21T07:01:48.576Z,57.4
2018-09-21T07:02:18.757Z,57.4
2018-09-21T07:02:49.411Z,57.8
2018-09-21T07:03:20.063Z,57.8
2018-09-21T07:03:50.588Z,58
2018-09-21T07:04:20.825Z,58
2018-09-21T07:05:46.098Z,58.2
2018-09-21T07:06:45.527Z,57.9
2018-09-21T07:07:44.843Z,58.3
2018-09-21T07:09:44.160Z,57.6
2018-09-21T07:10:43.597Z,57.6
2018-09-21T07:11:42.930Z,57.7
2018-09-21T07:12:42.255Z,57.6
2018-09-21T07:13:12.785Z,57.6
2018-09-21T07:13:43.313Z,57.3
2018-09-21T07:14:13.944Z,57.3
2018-09-21T07:15:40.341Z,57.3
2018-09-21T07:16:39.885Z,57.5
2018-09-21T07:17:39.206Z,57.3
2018-09-21T07:18:39.024Z,57.6
2018-09-21T07:20:37.635Z,57.3
2018-09-21T07:21:36.844Z,56.9
2018-09-21T07:22:36.675Z,56.9
2018-09-21T07:23:36.102Z,57
2018-09-21T07:24:35.538Z,56.6
2018-09-21T07:25:34.867Z,56.9
2018-09-21T07:26:34.291Z,57
2018-09-21T07:27:33.607Z,56.5
2018-09-21T07:28:33.324Z,56.6
2018-09-21T07:29:32.645Z,56.8
2018-09-21T07:30:03.062Z,56.8
2018-09-21T07:30:33.586Z,56.2
2018-09-21T07:31:31.519Z,56.4
2018-09-21T07:32:30.843Z,56.2
2018-09-21T07:33:30.285Z,55.7
2018-09-21T07:34:30.112Z,56.3
2018-09-21T07:35:29.323Z,55.9
2018-09-21T07:36:28.763Z,56.1
2018-09-21T07:37:28.276Z,56
2018-09-21T07:38:27.864Z,55.6
2018-09-21T07:39:27.301Z,56.3
2018-09-21T07:40:26.624Z,55.9
2018-09-21T07:41:26.055Z,55.5
2018-09-21T07:42:25.482Z,55.6
2018-09-21T07:43:24.596Z,55.4
2018-09-21T07:44:24.289Z,55.1
2018-09-21T07:45:23.679Z,54.9
2018-09-21T07:46:23.393Z,55.1
2018-09-21T07:48:22.221Z,54.1
2018-09-21T07:49:21.437Z,54.4
2018-09-21T07:50:20.802Z,53.9
2018-09-21T07:51:20.217Z,54.1
2018-09-21T07:52:19.938Z,53.9
2018-09-21T07:54:18.623Z,54.4
2018-09-21T07:55:17.987Z,54
2018-09-21T07:56:17.477Z,53.9
2018-09-21T07:57:16.794Z,54.2
2018-09-21T07:58:16.629Z,54.2
2018-09-21T07:59:15.839Z,53.3
2018-09-21T08:00:15.274Z,53.6
2018-09-21T08:00:45.511Z,53.6
2018-09-21T08:02:14.434Z,53.6
2018-09-21T08:02:44.961Z,53.6
2018-09-21T08:04:12.973Z,52.9
2018-09-21T08:05:12.524Z,53.2
2018-09-21T08:06:12.452Z,52.3
2018-09-21T08:07:11.782Z,52.4
2018-09-21T08:08:11.092Z,52.2
2018-09-21T08:09:10.313Z,52.7
2018-09-21T08:10:10.242Z,52.4
2018-09-21T08:12:08.747Z,51.8
2018-09-21T08:12:39.058Z,51.8
2018-09-21T08:13:09.623Z,51.6
2018-09-21T08:13:39.853Z,51.6
2018-09-21T08:14:10.276Z,51.5
2018-09-21T08:14:40.915Z,51.5
2018-09-21T08:15:11.439Z,51.6
2018-09-21T08:15:42.073Z,51.6
2018-09-21T08:17:06.195Z,51.1
2018-09-21T08:18:05.632Z,51.1
2018-09-21T08:19:05.245Z,50.7
2018-09-21T08:20:04.858Z,50.3
2018-09-21T08:22:03.583Z,50.4
2018-09-21T08:23:02.911Z,50.4
2018-09-21T08:24:02.843Z,50
2018-09-21T08:24:33.266Z,50
2018-09-21T08:25:03.921Z,50.9
2018-09-21T08:25:34.396Z,50.9
2018-09-21T08:27:00.803Z,49.6
2018-09-21T08:28:00.310Z,49.7
2018-09-21T08:29:00.028Z,49.5
2018-09-21T08:29:59.349Z,49.3
2018-09-21T08:30:59.066Z,49.2
2018-09-21T08:31:29.841Z,49.2
2018-09-21T08:32:00.154Z,49.5
2018-09-21T08:32:58.018Z,49.8
2018-09-21T08:33:57.432Z,49.7
2018-09-21T08:34:56.652Z,50
2018-09-21T08:36:55.660Z,50
2018-09-21T08:37:55.272Z,49.7
2018-09-21T08:38:54.889Z,49.7
2018-09-21T08:39:54.315Z,49.3
2018-09-21T08:40:53.932Z,49.2
2018-09-21T08:41:53.260Z,49.6
2018-09-21T08:42:52.723Z,49.1
2018-09-21T08:43:23.123Z,49.1
2018-09-21T08:43:53.651Z,49.3
2018-09-21T08:44:23.946Z,49.3
2018-09-21T08:44:54.375Z,49.4
2018-09-21T08:45:25.109Z,49.4
2018-09-21T08:46:50.640Z,48.1
2018-09-21T08:47:50.085Z,48
2018-09-21T08:48:49.799Z,47.8
2018-09-21T08:49:49.234Z,47.2
2018-09-21T08:50:48.562Z,46.8
2018-09-21T08:51:48.385Z,46.9
2018-09-21T08:52:47.803Z,46.6
2018-09-21T08:53:47.171Z,47
2018-09-21T08:54:17.592Z,47
2018-09-21T08:54:48.219Z,46.4
2018-09-21T08:55:18.405Z,46.4
2018-09-21T08:55:48.649Z,46.3
2018-09-21T08:56:18.796Z,46.3
2018-09-21T08:57:45.293Z,45.4
2018-09-21T08:58:44.725Z,45
2018-09-21T08:59:44.449Z,44.9
2018-09-21T09:00:43.781Z,45.2
2018-09-21T09:02:42.707Z,44.8
2018-09-21T09:03:42.312Z,45.1
2018-09-21T09:05:41.141Z,44.1
2018-09-21T09:06:40.865Z,43.8
2018-09-21T09:07:11.508Z,43.8
2018-09-21T09:07:42.044Z,43.7
2018-09-21T09:08:39.854Z,43.5
2018-09-21T09:10:38.964Z,44
2018-09-21T09:12:37.773Z,43.4
2018-09-21T09:13:37.594Z,43.8
2018-09-21T09:14:36.812Z,43.2
2018-09-21T09:15:36.124Z,43.2
2018-09-21T09:16:36.023Z,42.9
2018-09-21T09:17:35.242Z,43.2
2018-09-21T09:18:35.197Z,42.7
2018-09-21T09:19:34.409Z,43
2018-09-21T09:20:34.235Z,42.6
2018-09-21T09:21:33.573Z,42.9
2018-09-21T09:22:33.311Z,42.4
2018-09-21T09:23:32.630Z,42.7
2018-09-21T09:24:32.399Z,43.1
2018-09-21T09:25:31.946Z,42.6
2018-09-21T09:26:31.266Z,42.5
2018-09-21T09:27:30.583Z,43.1
2018-09-21T09:28:01.113Z,43.1
2018-09-21T09:29:30.025Z,42.7
2018-09-21T09:30:29.357Z,42.9
2018-09-21T09:31:28.684Z,41.9
2018-09-21T09:32:28.517Z,42.2
2018-09-21T09:33:28.025Z,42.4
2018-09-21T09:34:27.853Z,42.5
2018-09-21T09:35:27.335Z,42.5
2018-09-21T09:36:26.553Z,42.6
2018-09-21T09:37:26.270Z,42.7
2018-09-21T09:38:25.597Z,42.9
2018-09-21T09:39:25.428Z,42.9
2018-09-21T09:40:24.931Z,43.3
2018-09-21T09:41:24.351Z,43
2018-09-21T09:42:23.959Z,42.6
2018-09-21T09:43:23.868Z,42.6
2018-09-21T09:45:22.519Z,42.6
2018-09-21T09:46:22.043Z,43
2018-09-21T09:47:21.978Z,42.7
2018-09-21T09:48:21.398Z,42.8
2018-09-21T09:49:21.056Z,43.1
2018-09-21T09:50:20.491Z,43.2
2018-09-21T09:51:19.820Z,43.2
2018-09-21T09:52:19.755Z,43.1
2018-09-21T09:53:18.865Z,42.9
2018-09-21T09:54:18.489Z,43.4
2018-09-21T09:54:49.260Z,43.4
2018-09-21T09:55:19.477Z,43.2
2018-09-21T09:55:50.127Z,43.2
2018-09-21T09:56:20.374Z,42.6
2018-09-21T09:56:51.004Z,42.6
2018-09-21T09:57:21.536Z,42.5
2018-09-21T09:58:16.829Z,42.6
2018-09-21T10:00:16.146Z,43.5
2018-09-21T10:01:15.764Z,42.9
2018-09-21T10:02:15.079Z,42.7
2018-09-21T10:03:14.518Z,42.7
2018-09-21T10:04:14.344Z,42.9
2018-09-21T10:05:13.674Z,43.1
2018-09-21T10:05:44.208Z,43.1
2018-09-21T10:06:14.453Z,43
2018-09-21T10:06:45.089Z,43
2018-09-21T10:08:12.703Z,43.2
2018-09-21T10:09:12.089Z,43.1
2018-09-21T10:10:11.758Z,42.8
2018-09-21T10:11:11.110Z,42.8
2018-09-21T10:12:11.050Z,42.6
2018-09-21T10:13:10.374Z,42.4
2018-09-21T10:14:09.716Z,41.9
2018-09-21T10:16:08.826Z,41.4
2018-09-21T10:17:08.432Z,41.6
2018-09-21T10:18:08.149Z,41.4
2018-09-21T10:19:07.654Z,41.3
2018-09-21T10:20:07.378Z,41.1
2018-09-21T10:21:07.199Z,40.2
2018-09-21T10:22:06.416Z,39.9
2018-09-21T10:23:06.244Z,39.7
2018-09-21T10:24:05.772Z,38.3
2018-09-21T10:25:05.193Z,38.5
2018-09-21T10:25:35.972Z,38.5
2018-09-21T10:26:06.500Z,37.5
2018-09-21T10:26:37.068Z,37.5
2018-09-21T10:28:04.234Z,37.2
2018-09-21T10:29:03.434Z,37.1
2018-09-21T10:30:03.169Z,37.8
2018-09-21T10:31:02.789Z,37.3
2018-09-21T10:32:02.114Z,37.6
2018-09-21T10:33:02.131Z,35.8
2018-09-21T10:34:01.462Z,35.9
2018-09-21T10:35:01.187Z,35.5
2018-09-21T10:36:00.632Z,35.2
2018-09-21T10:36:31.092Z,35.2
2018-09-21T10:37:01.527Z,35.4
2018-09-21T10:37:31.980Z,35.4
2018-09-21T10:38:02.290Z,34.7
2018-09-21T10:38:32.922Z,34.7
2018-09-21T10:39:03.258Z,35.3
2018-09-21T10:39:33.608Z,35.3
2018-09-21T10:40:04.572Z,34.8
2018-09-21T10:40:34.498Z,34.8
2018-09-21T10:41:58.430Z,34.8
2018-09-21T10:42:57.695Z,34.5
2018-09-21T10:43:57.097Z,34.7
2018-09-21T10:44:56.915Z,34.7
2018-09-21T10:45:56.706Z,34.4
2018-09-21T10:46:56.326Z,34.6
2018-09-21T10:47:55.942Z,34.8
2018-09-21T10:48:55.670Z,34.6
2018-09-21T10:49:26.307Z,34.6
2018-09-21T10:49:56.951Z,34.3
2018-09-21T10:50:27.367Z,34.3
2018-09-21T10:50:57.996Z,34.3
2018-09-21T10:51:28.415Z,34.3
2018-09-21T10:53:53.307Z,34.3
2018-09-21T10:54:53.030Z,34.2
2018-09-21T10:55:52.757Z,34.6
2018-09-21T10:56:52.090Z,34.5
2018-09-21T10:57:51.813Z,34.3
2018-09-21T10:58:51.743Z,34.4
2018-09-21T10:59:51.083Z,34.4
2018-09-21T11:00:50.712Z,34.7
2018-09-21T11:01:50.330Z,34.9
2018-09-21T11:02:50.147Z,34.9
2018-09-21T11:03:49.467Z,35
2018-09-21T11:04:49.300Z,34.9
2018-09-21T11:05:48.652Z,35
2018-09-21T11:06:48.491Z,35.1
2018-09-21T11:07:48.099Z,34.9
2018-09-21T11:08:47.421Z,34.5
2018-09-21T11:09:47.141Z,34.2
2018-09-21T11:12:46.247Z,34.2
2018-09-21T11:13:45.566Z,34.7
2018-09-21T11:14:45.505Z,34.8
2018-09-21T11:15:44.612Z,34.9
2018-09-21T11:16:44.448Z,35.3
2018-09-21T11:17:44.377Z,35.6
2018-09-21T11:19:43.595Z,35.8
2018-09-21T11:20:42.811Z,35.5
2018-09-21T11:21:42.528Z,35.5
2018-09-21T11:22:12.851Z,35.5
2018-09-21T11:23:41.767Z,35.5
2018-09-21T11:24:41.597Z,35.3
2018-09-21T11:26:40.817Z,35.3
2018-09-21T11:28:40.046Z,35.4
2018-09-21T11:29:39.375Z,35.7
2018-09-21T11:30:39.195Z,35.6
2018-09-21T11:31:38.519Z,35.7
2018-09-21T11:32:38.256Z,36
2018-09-21T11:34:37.862Z,36.6
2018-09-21T11:35:37.183Z,36.6
2018-09-21T11:37:36.577Z,37.1
2018-09-21T11:38:36.005Z,37.1
2018-09-21T11:39:06.537Z,37.1
2018-09-21T11:39:36.768Z,37.2
2018-09-21T11:40:35.737Z,37.6
2018-09-21T11:41:34.951Z,37.5
2018-09-21T11:42:34.786Z,37.7
2018-09-21T11:43:34.099Z,37.4
2018-09-21T11:44:33.977Z,37.8
2018-09-21T11:45:33.802Z,37.9
2018-09-21T11:46:33.295Z,38.1
2018-09-21T11:47:33.431Z,38.4
2018-09-21T11:48:32.271Z,38.7
2018-09-21T11:49:31.876Z,38.9
2018-09-21T11:50:02.513Z,38.9
2018-09-21T11:51:31.317Z,39.1
2018-09-21T11:52:30.525Z,39.3
2018-09-21T11:54:30.235Z,39.5
2018-09-21T11:55:29.556Z,39.4
2018-09-21T11:56:29.511Z,39.5
2018-09-21T11:57:28.825Z,39.8
2018-09-21T11:58:28.647Z,39.6
2018-09-21T11:59:27.970Z,39.7
2018-09-21T12:00:27.900Z,39.8
2018-09-21T12:01:27.639Z,39.7
2018-09-21T12:02:26.954Z,40
2018-09-21T12:03:26.675Z,40
2018-09-21T12:04:25.998Z,40.1
2018-09-21T12:05:25.712Z,40.4
2018-09-21T12:06:25.648Z,40.4
2018-09-21T12:07:24.964Z,40.6
2018-09-21T12:08:24.683Z,40.7
2018-09-21T12:09:24.405Z,40.9
2018-09-21T12:10:24.144Z,41.2
2018-09-21T12:11:23.521Z,40.8
2018-09-21T12:12:23.133Z,40.9
2018-09-21T12:13:22.627Z,41.3
2018-09-21T12:14:22.385Z,41.7
2018-09-21T12:15:22.103Z,41.3
2018-09-21T12:19:20.496Z,41.3
2018-09-21T12:31:15.506Z,41.7
2018-09-21T12:34:14.227Z,41.9
2018-09-21T12:34:44.645Z,41.9
2018-09-21T12:36:13.704Z,41.9
2018-09-21T12:36:43.883Z,41.9
2018-09-21T12:38:12.506Z,42
2018-09-21T12:41:11.503Z,42.3
2018-09-21T12:45:09.658Z,42.3
2018-09-21T12:58:05.144Z,42
2018-09-21T13:01:03.247Z,41.7
2018-09-21T13:02:03.176Z,41.9
2018-09-21T13:08:00.340Z,41.6
2018-09-21T13:09:59.553Z,40.9
2018-09-21T13:13:58.050Z,39.1
2018-09-21T13:15:57.163Z,38.5
2018-09-21T13:16:56.992Z,38.4
2018-09-21T13:17:27.533Z,38.4
2018-09-21T13:17:58.212Z,38.4
2018-09-21T13:18:28.851Z,38.4
2018-09-21T13:23:54.417Z,38.6
2018-09-21T13:24:53.628Z,38.1
2018-09-21T13:25:53.460Z,38.1
2018-09-21T13:26:53.101Z,38.8
2018-09-21T13:28:52.002Z,37.8
2018-09-21T13:29:51.926Z,37.8
2018-09-21T13:30:51.247Z,38
2018-09-21T13:32:50.351Z,37.9
2018-09-21T13:33:50.086Z,37.9
2018-09-21T13:34:20.325Z,37.9
2018-09-21T13:37:48.732Z,38.3
2018-09-21T13:44:45.952Z,37.4
2018-09-21T13:45:45.278Z,37.1
2018-09-21T13:46:45.106Z,35.2
2018-09-21T13:47:44.724Z,34.7
2018-09-21T13:49:43.933Z,34.9
2018-09-21T13:51:43.081Z,34.3
2018-09-21T13:52:42.597Z,34.3
2018-09-21T13:53:42.535Z,33.9
2018-09-21T13:54:41.861Z,33.3
2018-09-21T13:55:41.682Z,33.2
2018-09-21T15:38:55.012Z,81.8
2018-09-21T15:39:54.221Z,82.9
2018-09-21T15:40:53.728Z,83.2
2018-09-21T15:41:53.429Z,83
2018-09-21T15:42:52.535Z,82.9
2018-09-21T15:51:46.853Z,85.1
2018-09-21T15:52:46.647Z,86.5
2018-09-21T15:54:45.366Z,87.5
2018-09-21T15:58:42.834Z,86.6
2018-09-21T15:59:13.360Z,86.6
2018-09-21T15:59:43.663Z,86.7
2018-09-21T16:00:13.883Z,86.7
2018-09-21T16:41:14.033Z,81.1
2018-09-21T16:41:44.262Z,81.1
2018-09-21T16:55:04.423Z,79.8
2018-09-21T16:56:03.733Z,80.1
2018-09-21T16:59:01.484Z,78.2
2018-09-21T17:00:00.759Z,79
2018-09-21T17:03:58.145Z,77.7
2018-09-21T17:05:56.737Z,78.6
2018-09-21T17:06:56.057Z,79.8
2018-09-21T17:07:54.759Z,78.8
2018-09-21T17:08:54.573Z,79.7
2018-09-21T17:09:53.676Z,79.8
2018-09-21T17:10:52.985Z,80.1
2018-09-21T17:11:52.310Z,79.9
2018-09-21T17:12:51.518Z,80.9
2018-09-21T17:13:50.619Z,81.7
2018-09-21T17:14:50.042Z,82.1
2018-09-21T17:15:49.349Z,82.2
2018-09-21T17:16:48.766Z,82.5
2018-09-21T17:17:47.918Z,81.3
2018-09-21T17:18:47.343Z,82.1
2018-09-21T17:20:45.943Z,82
2018-09-21T17:21:45.255Z,82.8
2018-09-21T17:26:41.643Z,82.7
2018-09-21T17:28:39.886Z,82.5
2018-09-21T17:32:37.380Z,83.9
2018-09-21T17:33:36.486Z,83.5
2018-09-21T17:34:07.114Z,83.5
2018-09-21T18:02:15.503Z,90.4
2018-09-21T18:03:14.420Z,90.3
2018-09-21T18:04:13.849Z,91
2018-09-21T18:05:13.085Z,91.4
2018-09-21T18:06:12.397Z,91
2018-09-21T18:07:11.665Z,91.1
2018-09-21T18:08:10.713Z,89.9
2018-09-21T18:11:08.812Z,90.3
2018-09-21T18:12:08.022Z,90.5
2018-09-21T18:13:07.219Z,90.7
2018-09-21T18:15:05.922Z,90.9
2018-09-21T18:16:04.972Z,90.6
2018-09-21T18:17:04.312Z,90.3
2018-09-21T18:18:03.621Z,90.4
2018-09-21T18:18:34.243Z,90.4
2018-09-21T18:19:04.773Z,89.9
2018-09-21T18:19:35.291Z,89.9
2018-09-21T18:21:01.178Z,90.7
2018-09-21T18:22:00.780Z,90.9
2018-09-21T18:23:58.869Z,91.3
2018-09-21T18:34:51.086Z,89.8
2018-09-21T18:36:49.577Z,89.1
2018-09-21T18:37:48.901Z,89.5
2018-09-21T18:46:41.830Z,89.5
2018-09-21T18:47:41.219Z,89.7
2018-09-21T19:02:29.866Z,89.3
2018-09-21T19:06:26.958Z,89.8
2018-09-21T19:08:25.319Z,89.5
2018-09-21T19:22:14.696Z,88.8
2018-09-21T19:22:45.243Z,88.8
2018-09-21T19:23:15.872Z,88.6
2018-09-21T19:24:13.673Z,88.4
2018-09-21T20:04:42.963Z,86
2018-09-21T20:05:41.990Z,85.9
2018-09-21T20:06:41.526Z,85.7
2018-09-21T20:07:12.153Z,85.7
2018-09-21T20:10:38.108Z,84.5
2018-09-21T20:40:16.168Z,82
2018-09-21T20:47:10.915Z,81.5
2018-09-21T20:47:41.536Z,81.5
2018-09-21T20:53:06.079Z,81
2018-09-21T20:55:04.780Z,80.6
2018-09-21T21:00:01.265Z,80.8
2018-09-21T21:00:31.811Z,80.8
2018-09-21T21:01:59.214Z,80.6
2018-09-21T21:04:57.370Z,80.6
2018-09-21T21:08:54.241Z,80.1
2018-09-21T21:09:24.865Z,80.1
2018-09-21T21:14:49.916Z,80
2018-09-21T21:21:44.448Z,79.8
2018-09-21T21:31:37.276Z,78.8
2018-09-21T21:36:33.426Z,78.6
2018-09-21T21:37:32.415Z,78.6
2018-09-21T21:38:32.022Z,78.6
2018-09-21T21:40:30.009Z,78.1
2018-09-21T21:41:00.730Z,78.1
2018-09-21T21:45:26.382Z,78.3
2018-09-21T21:47:25.183Z,78.1
